Latest Weather Observations for Ulladulla

IDN60801

Issued at 8:02 am EST Saturday 28 May 2016 (issued every 30 minutes, with the page automatically refreshed every 10 minutes)

About weather observations | Map of weather stations | Latest weather observations for NSW | Other Formats
Station Details ID: 069138 Name: ULLADULLA AWS Lat: -35.36 Lon: 150.48 Height: 35.7 m
Data from the previous 72 hours. | See also: Recent months at Ulladulla
Date/Time
EST
Temp
°C
App
Temp
°C
Dew
Point
Rel
Hum
%
Delta-T
°C
Wind Press
QNH
hPa
Press
MSL
hPa
Rain
since 9 am
mm
Dir
 
Spd
km/h
Gust
km/h
Spd
kts
Gust
kts
28/08:00am 10.4 7.9 4.8 68 2.5 W 7 11 4 6 1006.2 1006.1 0.0
28/07:30am 9.5 7.0 3.9 68 2.5 WSW 6 7 3 4 1006.3 1006.2 0.0
28/07:00am 9.6 6.9 3.8 67 2.5 SW 7 9 4 5 1006.3 1006.2 0.0
28/06:30am 10.4 7.9 3.7 63 2.9 SW 6 9 3 5 1006.1 1006.0 0.0
28/06:00am 11.1 8.3 3.4 59 3.4 W 7 13 4 7 1005.8 1005.7 0.0
28/05:30am 11.1 7.9 3.2 58 3.5 W 9 17 5 9 1005.7 1005.6 0.0
28/05:00am 11.4 7.8 2.7 55 3.8 W 11 17 6 9 1005.7 1005.6 0.0
28/04:30am 11.5 7.8 2.3 53 4.0 W 11 20 6 11 1005.7 1005.6 0.0
28/04:00am 11.7 7.5 1.9 51 4.2 W 13 24 7 13 1005.4 1005.3 0.0
28/03:30am 11.4 7.6 1.6 51 4.1 W 11 22 6 12 1005.3 1005.2 0.0
28/03:00am 11.6 7.7 1.3 49 4.4 W 11 24 6 13 1005.6 1005.5 0.0
28/02:30am 11.6 7.3 1.0 48 4.4 WNW 13 22 7 12 1005.9 1005.8 0.0
28/02:00am 11.6 7.4 1.5 50 4.3 W 13 28 7 15 1006.1 1006.0 0.0
28/01:30am 11.6 7.0 1.3 49 4.3 W 15 28 8 15 1005.9 1005.8 0.0
28/01:00am 11.6 7.3 1.3 49 4.4 W 13 28 7 15 1006.0 1005.9 0.0
28/12:30am 11.6 7.8 1.5 50 4.3 W 11 24 6 13 1006.0 1005.9 0.0
28/12:00am 11.7 7.5 1.9 51 4.2 W 13 22 7 12 1006.0 1005.9 0.0
 
Date/Time
EST
Temp
°C
App
Temp
°C
Dew
Point
Rel
Hum
%
Delta-T
°C
Wind Press
QNH
hPa
Press
MSL
hPa
Rain
since 9 am
mm
Dir
 
Spd
km/h
Gust
km/h
Spd
kts
Gust
kts
27/11:30pm 11.7 7.5 1.9 51 4.2 WNW 13 22 7 12 1006.2 1006.1 0.0
27/11:00pm 12.1 7.2 2.0 50 4.4 WNW 17 30 9 16 1006.0 1005.9 0.0
27/10:30pm 12.1 7.2 2.0 50 4.3 W 17 32 9 17 1005.7 1005.6 0.0
27/10:00pm 12.3 7.3 1.6 48 4.6 W 17 32 9 17 1005.5 1005.4 0.0
27/09:30pm 12.5 7.9 1.5 47 4.7 W 15 28 8 15 1005.5 1005.4 0.0
27/09:00pm 12.4 8.1 1.1 46 4.8 WNW 13 22 7 12 1005.3 1005.2 0.0
27/08:30pm 12.7 8.8 1.1 45 4.9 WNW 11 20 6 11 1005.0 1004.9 0.0
27/08:00pm 12.9 8.6 1.0 44 5.1 WNW 13 20 7 11 1004.9 1004.8 0.0
27/07:30pm 12.8 9.2 0.5 43 5.1 WNW 9 17 5 9 1004.6 1004.5 0.0
27/07:00pm 13.3 9.6 0.0 40 5.6 W 9 20 5 11 1004.2 1004.1 0.0
27/06:30pm 13.6 9.8 -0.4 38 5.8 W 9 20 5 11 1003.5 1003.4 0.0
27/06:00pm 14.1 9.9 -0.7 36 6.1 W 11 22 6 12 1002.8 1002.7 0.0
27/05:30pm 14.7 10.1 -1.0 34 6.5 WSW 13 28 7 15 1002.3 1002.2 0.0
27/05:00pm 15.0 10.8 -1.1 33 6.7 W 11 22 6 12 1001.6 1001.5 0.0
27/04:30pm 15.9 10.6 -0.8 32 7.0 WSW 17 39 9 21 1001.2 1001.1 0.0
27/04:00pm 16.5 11.6 -0.7 31 7.3 WSW 15 32 8 17 1000.6 1000.5 0.0
27/03:30pm 17.1 11.4 -0.6 30 7.5 WSW 19 35 10 19 1000.1 1000.0 0.0
27/03:00pm 16.6 11.3 -0.6 31 7.3 WSW 17 33 9 18 999.8 999.7 0.0
27/02:30pm 17.3 11.5 -0.4 30 7.6 WSW 20 48 11 26 999.6 999.5 0.0
27/02:00pm 17.9 11.2 -0.8 28 8.0 W 24 39 13 21 999.4 999.3 0.0
27/01:30pm 18.1 12.6 0.7 31 7.7 WSW 19 39 10 21 999.4 999.3 0.0
27/01:00pm 18.1 13.0 0.7 31 7.7 W 17 35 9 19 999.4 999.3 0.0
27/12:30pm 17.6 12.8 2.4 36 6.9 WSW 17 32 9 17 999.6 999.5 0.0
27/12:00pm 17.5 13.1 2.7 37 6.8 W 15 33 8 18 999.9 999.8 0.0
27/11:30am 16.7 11.5 2.3 38 6.5 W 19 33 10 18 1000.1 1000.0 0.0
27/11:00am 16.1 11.0 2.9 41 6.0 W 19 37 10 20 1000.5 1000.4 0.0
27/10:30am 15.5 10.9 3.6 45 5.5 W 17 32 9 17 1001.1 1001.0 0.0
27/10:00am 15.0 10.7 3.5 46 5.3 WNW 15 30 8 16 1001.4 1001.3 0.0
27/09:30am 14.4 10.1 3.5 48 4.9 WNW 15 28 8 15 1001.6 1001.5 0.0
27/09:00am 13.8 9.2 3.6 50 4.6 WNW 17 32 9 17 1001.7 1001.6 0.0
27/08:30am 13.4 9.5 3.5 51 4.5 WNW 13 26 7 14 1001.7 1001.6 0.0
27/08:00am 12.8 8.1 3.2 52 4.3 WNW 17 32 9 17 1001.4 1001.3 0.0
27/07:30am 12.3 8.0 3.5 55 3.9 WNW 15 28 8 15 1001.2 1001.1 0.0
27/07:00am 11.8 7.2 3.6 57 3.7 WNW 17 39 9 21 1001.1 1001.0 0.0
27/06:30am 11.9 8.1 3.9 58 3.6 WNW 13 26 7 14 1001.0 1000.9 0.0
27/06:00am 12.2 8.1 4.2 58 3.6 WNW 15 28 8 15 1000.8 1000.7 0.0
27/05:30am 12.2 7.8 4.7 60 3.4 W 17 32 9 17 1000.6 1000.5 0.0
27/05:00am 12.1 8.8 4.8 61 3.4 W 11 26 6 14 1000.3 1000.2 0.0
27/04:30am 12.5 9.3 5.0 60 3.5 W 11 20 6 11 1000.2 1000.1 0.0
27/04:00am 12.5 8.9 5.2 61 3.4 WNW 13 26 7 14 999.9 999.8 0.0
27/03:30am 12.7 9.6 5.6 62 3.3 W 11 20 6 11 1000.0 999.9 0.0
27/03:00am 12.5 10.2 5.9 64 3.1 WNW 7 15 4 8 1000.2 1000.1 0.0
27/02:30am 12.7 10.1 6.1 64 3.1 WNW 9 20 5 11 1000.1 1000.0 0.0
27/02:00am 12.8 9.4 5.9 63 3.3 WNW 13 24 7 13 1000.1 1000.0 0.0
27/01:30am 12.8 9.0 5.9 63 3.3 WNW 15 28 8 15 999.9 999.8 0.0
27/01:00am 12.9 9.1 5.6 61 3.4 W 15 32 8 17 1000.3 1000.2 0.0
27/12:30am 13.1 9.2 5.5 60 3.6 W 15 30 8 16 1000.3 1000.2 0.0
27/12:00am 13.6 9.7 5.3 57 3.9 WNW 15 26 8 14 1000.2 1000.1 0.0
 
Date/Time
EST
Temp
°C
App
Temp
°C
Dew
Point
Rel
Hum
%
Delta-T
°C
Wind Press
QNH
hPa
Press
MSL
hPa
Rain
since 9 am
mm
Dir
 
Spd
km/h
Gust
km/h
Spd
kts
Gust
kts
26/11:30pm 13.7 10.6 5.6 58 3.8 W 11 28 6 15 1000.4 1000.3 0.0
26/11:00pm 14.2 12.7 6.6 60 3.7 W 4 7 2 4 1000.2 1000.1 0.0
26/10:30pm 14.1 12.7 7.2 63 3.4 W 4 9 2 5 1000.2 1000.1 0.0
26/10:00pm 13.7 12.8 7.7 67 3.0 WNW 2 6 1 3 1000.6 1000.5 0.0
26/09:30pm 14.2 12.4 7.9 66 3.1 W 7 17 4 9 1000.6 1000.5 0.0
26/09:00pm 14.8 12.3 8.1 64 3.4 WNW 11 20 6 11 1000.4 1000.3 0.0
26/08:30pm 15.0 12.8 8.0 63 3.5 W 9 19 5 10 1000.5 1000.4 0.0
26/08:00pm 15.0 13.4 8.0 63 3.5 W 6 11 3 6 1000.6 1000.5 0.0
26/07:30pm 15.2 13.0 8.0 62 3.6 WNW 9 17 5 9 1000.5 1000.4 0.0
26/07:00pm 15.4 11.7 7.9 61 3.8 NW 17 35 9 19 999.9 999.8 0.0
26/06:30pm 15.8 11.8 8.1 60 3.9 NW 19 30 10 16 999.9 999.8 0.0
26/06:00pm 15.6 12.3 8.1 61 3.8 WNW 15 22 8 12 999.7 999.6 0.0
26/05:30pm 15.7 12.8 8.2 61 3.8 WNW 13 22 7 12 999.4 999.3 0.0
26/05:00pm 15.6 12.7 8.1 61 3.8 WNW 13 24 7 13 998.9 998.8 0.0
26/04:30pm 16.2 12.6 8.4 60 4.0 WNW 17 30 9 16 998.7 998.6 0.0
26/04:00pm 16.9 14.1 8.6 58 4.3 WNW 13 24 7 13 998.8 998.7 0.0
26/03:30pm 17.1 13.8 8.0 55 4.6 WNW 15 28 8 15 998.6 998.5 0.0
26/03:00pm 17.3 15.4 9.0 58 4.3 WNW 9 24 5 13 999.0 998.9 0.0
26/02:30pm 17.0 13.9 8.7 58 4.3 WNW 15 30 8 16 998.9 998.8 0.0
26/02:00pm 16.6 14.3 9.1 61 3.9 WNW 11 28 6 15 999.2 999.1 0.0
26/01:30pm 15.7 14.2 10.5 71 2.8 N 9 13 5 7 999.8 999.7 0.0
26/01:00pm 15.1 14.1 9.0 67 3.1 NNE 4 6 2 3 1000.5 1000.4 0.0
26/12:30pm 14.9 13.8 9.9 72 2.6 NW 6 11 3 6 1001.7 1001.6 0.0
26/12:00pm 15.0 14.1 9.4 69 2.9 NNW 4 9 2 5 1002.2 1002.1 0.0
26/11:30am 14.6 14.3 8.8 68 2.9 CALM 0 0 0 0 1003.0 1002.9 0.0
26/11:00am 14.4 13.7 8.4 67 3.0 W 2 6 1 3 1003.7 1003.6 0.0
26/10:30am 14.4 10.9 8.6 68 2.9 NW 17 32 9 17 1004.1 1004.0 0.0
26/10:00am 14.3 13.0 9.1 71 2.7 NNW 6 11 3 6 1004.9 1004.8 0.0
26/09:30am 13.7 11.8 9.0 73 2.4 NNW 9 15 5 8 1004.8 1004.7 0.0
26/09:00am 13.2 11.4 9.5 78 1.9 NNW 9 15 5 8 1005.5 1005.4 11.0
26/08:30am 12.8 12.9 10.0 83 1.4 CALM 0 0 0 0 1005.5 1005.4 11.0
26/08:00am 13.5 11.5 8.8 73 2.4 NNW 9 15 5 8 1006.8 1006.7 10.6
26/07:30am 13.3 10.5 8.6 73 2.4 NNW 13 17 7 9 1006.9 1006.8 10.6
26/07:00am 13.2 10.8 8.7 74 2.3 NNW 11 20 6 11 1006.4 1006.3 10.6
26/06:30am 12.8 10.0 8.7 76 2.1 NNW 13 20 7 11 1006.6 1006.5 10.6
26/06:00am 12.6 9.9 8.9 78 1.9 NNW 13 22 7 12 1007.0 1006.9 10.6
26/05:30am 12.1 10.4 9.8 86 1.2 NNW 9 17 5 9 1007.5 1007.4 10.4
26/05:00am 12.2 10.6 10.3 88 1.0 N 9 13 5 7 1008.0 1007.9 9.8
26/04:30am 12.5 11.6 10.6 88 1.0 NNW 6 11 3 6 1008.3 1008.2 9.4
26/04:00am 12.8 11.6 9.6 81 1.6 N 6 13 3 7 1008.3 1008.2 8.8
26/03:30am 12.7 11.7 10.2 85 1.3 NNW 6 9 3 5 1008.8 1008.7 8.2
26/03:00am 13.2 11.7 10.4 83 1.5 N 9 17 5 9 1008.8 1008.7 6.6
26/02:30am 13.1 12.0 10.1 82 1.5 NE 6 11 3 6 1009.6 1009.6 4.6
26/02:00am 13.7 12.0 9.7 77 2.1 NNW 9 15 5 8 1010.2 1010.2 2.6
26/01:30am 15.4 13.1 7.4 59 4.0 N 9 15 5 8 1010.1 1010.1 0.0
26/01:00am 15.1 12.3 6.9 58 4.0 NNW 11 17 6 9 1010.0 1010.0 0.0
26/12:30am 15.3 10.8 6.3 55 4.4 NW 19 28 10 15 1010.5 1010.5 0.0
26/12:00am 15.1 12.8 5.9 54 4.4 NW 7 11 4 6 1011.0 1011.0 0.0
 
Date/Time
EST
Temp
°C
App
Temp
°C
Dew
Point
Rel
Hum
%
Delta-T
°C
Wind Press
QNH
hPa
Press
MSL
hPa
Rain
since 9 am
mm
Dir
 
Spd
km/h
Gust
km/h
Spd
kts
Gust
kts
25/11:30pm 15.0 13.3 5.8 54 4.4 NNW 4 7 2 4 1011.3 1011.3 0.0
25/11:00pm 15.0 12.2 5.2 52 4.6 WNW 9 15 5 8 1011.8 1011.8 0.0
25/10:30pm 14.9 12.8 5.7 54 4.4 NNW 6 9 3 5 1011.4 1011.4 0.0
25/10:00pm 15.2 12.3 4.6 49 5.0 NW 9 15 5 8 1011.7 1011.7 0.0
25/09:30pm 15.9 12.6 4.3 46 5.4 NNW 11 20 6 11 1012.1 1012.1 0.0
25/09:00pm 15.5 10.9 3.6 45 5.5 NW 17 26 9 14 1011.8 1011.8 0.0
25/08:30pm 14.9 12.1 5.1 52 4.6 NNW 9 17 5 9 1012.1 1012.1 0.0
25/08:00pm 14.7 12.4 5.5 54 4.4 NNW 7 15 4 8 1012.1 1012.1 0.0
25/07:30pm 14.8 12.3 4.5 50 4.8 NW 7 15 4 8 1012.4 1012.4 0.0
25/07:00pm 14.1 12.2 4.9 54 4.3 NNW 4 6 2 3 1012.6 1012.6 0.0
25/06:30pm 14.4 12.1 4.7 52 4.5 NNW 6 11 3 6 1012.7 1012.7 0.0
25/06:00pm 14.8 12.8 4.2 49 4.9 NNW 4 7 2 4 1012.5 1012.5 0.0
25/05:30pm 14.9 13.2 6.0 55 4.3 NNW 4 6 2 3 1012.5 1012.5 0.0
25/05:00pm 16.0 13.4 6.2 52 4.8 NNW 9 15 5 8 1012.2 1012.2 0.0
25/04:30pm 16.9 14.8 8.3 57 4.4 N 9 20 5 11 1012.0 1012.0 0.0
25/04:00pm 16.8 15.1 7.7 55 4.6 NNE 6 13 3 7 1012.2 1012.2 0.0
25/03:30pm 16.4 14.1 7.6 56 4.4 NNE 9 17 5 9 1012.4 1012.4 0.0
25/03:00pm 17.0 13.7 6.2 49 5.3 NNE 13 20 7 11 1012.4 1012.4 0.0
25/02:30pm 17.4 14.7 5.7 46 5.7 NE 9 17 5 9 1012.4 1012.4 0.0
25/02:00pm 17.3 14.6 5.6 46 5.7 NE 9 13 5 7 1012.9 1012.9 0.0
25/01:30pm 17.6 15.3 5.9 46 5.7 NE 7 13 4 7 1013.1 1013.1 0.0
25/01:00pm 17.1 14.5 4.4 43 6.0 NE 7 11 4 6 1013.5 1013.5 0.0
25/12:30pm 16.7 13.9 3.4 41 6.1 NNE 7 11 4 6 1014.2 1014.2 0.0
25/12:00pm 16.8 14.2 4.2 43 5.9 NNE 7 9 4 5 1014.7 1014.7 0.0
25/11:30am 16.4 13.1 2.4 39 6.3 N 9 13 5 7 1015.2 1015.2 0.0
25/11:00am 17.8 15.1 2.5 36 7.0 W 6 13 3 7 1015.9 1015.9 0.0
25/10:30am 16.5 13.8 2.9 40 6.2 NW 6 11 3 6 1016.3 1016.3 0.0
25/10:00am 15.9 13.5 4.3 46 5.4 WNW 6 11 3 6 1016.8 1016.8 0.0
25/09:30am 15.5 13.0 4.8 49 5.0 WNW 7 13 4 7 1017.1 1017.1 0.0
25/09:00am 14.0 11.5 4.0 51 4.6 WNW 6 11 3 6 1017.4 1017.4 0.0
25/08:30am 13.7 11.0 3.5 50 4.6 WNW 7 13 4 7 1017.3 1017.3 0.0

Other Formats:

Comma delimited format used in spreadsheet applications
http://www.bom.gov.au/fwo/IDN60801/IDN60801.94938.axf

JavaScript Object Notation format (JSON) in row-major order
http://www.bom.gov.au/fwo/IDN60801/IDN60801.94938.json